sensor_id;sensor_type;location;lat;lon;timestamp;P1;durP1;ratioP1;P2;durP2;ratioP2
69030;SDS011;56083;48.774;8.942;2022-08-19T00:01:15;23.67;;;16.13;;
69030;SDS011;56083;48.774;8.942;2022-08-19T00:03:41;23.13;;;16.58;;
69030;SDS011;56083;48.774;8.942;2022-08-19T00:06:07;25.08;;;17.25;;
69030;SDS011;56083;48.774;8.942;2022-08-19T00:08:33;24.02;;;16.77;;
69030;SDS011;56083;48.774;8.942;2022-08-19T00:10:59;22.33;;;17.15;;
69030;SDS011;56083;48.774;8.942;2022-08-19T00:13:24;26.27;;;18.65;;
69030;SDS011;56083;48.774;8.942;2022-08-19T00:15:53;23.98;;;17.17;;
69030;SDS011;56083;48.774;8.942;2022-08-19T00:18:20;24.02;;;17.27;;
69030;SDS011;56083;48.774;8.942;2022-08-19T00:20:46;25.42;;;17.17;;
69030;SDS011;56083;48.774;8.942;2022-08-19T00:23:11;25.10;;;17.70;;
69030;SDS011;56083;48.774;8.942;2022-08-19T00:25:37;27.85;;;17.83;;
69030;SDS011;56083;48.774;8.942;2022-08-19T00:28:03;27.88;;;18.48;;
69030;SDS011;56083;48.774;8.942;2022-08-19T00:30:29;26.45;;;18.63;;
69030;SDS011;56083;48.774;8.942;2022-08-19T00:32:56;26.77;;;18.33;;
69030;SDS011;56083;48.774;8.942;2022-08-19T00:35:22;26.63;;;17.45;;
69030;SDS011;56083;48.774;8.942;2022-08-19T00:37:49;28.05;;;18.70;;
69030;SDS011;56083;48.774;8.942;2022-08-19T00:40:15;26.23;;;17.85;;
69030;SDS011;56083;48.774;8.942;2022-08-19T00:42:43;30.10;;;18.77;;
69030;SDS011;56083;48.774;8.942;2022-08-19T00:45:12;26.17;;;18.27;;
69030;SDS011;56083;48.774;8.942;2022-08-19T00:47:42;25.30;;;17.67;;
69030;SDS011;56083;48.774;8.942;2022-08-19T00:50:08;24.77;;;18.60;;
69030;SDS011;56083;48.774;8.942;2022-08-19T00:52:37;26.55;;;18.27;;
69030;SDS011;56083;48.774;8.942;2022-08-19T00:55:09;28.55;;;19.92;;
69030;SDS011;56083;48.774;8.942;2022-08-19T00:57:38;26.35;;;19.08;;
69030;SDS011;56083;48.774;8.942;2022-08-19T01:00:08;32.90;;;19.70;;
69030;SDS011;56083;48.774;8.942;2022-08-19T01:02:38;25.52;;;19.77;;
69030;SDS011;56083;48.774;8.942;2022-08-19T01:05:06;28.85;;;20.40;;
69030;SDS011;56083;48.774;8.942;2022-08-19T01:07:37;31.63;;;22.23;;
69030;SDS011;56083;48.774;8.942;2022-08-19T01:10:06;32.63;;;22.52;;
69030;SDS011;56083;48.774;8.942;2022-08-19T01:12:34;34.33;;;25.92;;
69030;SDS011;56083;48.774;8.942;2022-08-19T01:15:00;34.22;;;24.48;;
69030;SDS011;56083;48.774;8.942;2022-08-19T01:17:26;36.72;;;27.63;;
69030;SDS011;56083;48.774;8.942;2022-08-19T01:19:52;35.15;;;27.38;;
69030;SDS011;56083;48.774;8.942;2022-08-19T01:24:53;36.75;;;24.60;;
69030;SDS011;56083;48.774;8.942;2022-08-19T01:27:19;31.60;;;22.55;;
69030;SDS011;56083;48.774;8.942;2022-08-19T01:29:45;32.63;;;20.98;;
69030;SDS011;56083;48.774;8.942;2022-08-19T01:32:15;34.83;;;21.42;;
69030;SDS011;56083;48.774;8.942;2022-08-19T01:34:41;29.33;;;21.83;;
69030;SDS011;56083;48.774;8.942;2022-08-19T01:37:12;34.25;;;22.52;;
69030;SDS011;56083;48.774;8.942;2022-08-19T01:39:39;33.00;;;23.55;;
69030;SDS011;56083;48.774;8.942;2022-08-19T01:42:06;31.15;;;23.75;;
69030;SDS011;56083;48.774;8.942;2022-08-19T01:44:35;38.30;;;26.13;;
69030;SDS011;56083;48.774;8.942;2022-08-19T01:47:01;32.63;;;25.08;;
69030;SDS011;56083;48.774;8.942;2022-08-19T01:49:28;31.42;;;22.92;;
69030;SDS011;56083;48.774;8.942;2022-08-19T01:51:54;35.17;;;25.30;;
69030;SDS011;56083;48.774;8.942;2022-08-19T01:54:22;34.50;;;23.02;;
69030;SDS011;56083;48.774;8.942;2022-08-19T01:56:50;37.15;;;23.27;;
69030;SDS011;56083;48.774;8.942;2022-08-19T01:59:19;31.55;;;22.52;;
69030;SDS011;56083;48.774;8.942;2022-08-19T02:01:46;33.60;;;23.17;;
69030;SDS011;56083;48.774;8.942;2022-08-19T02:04:12;36.72;;;22.88;;
69030;SDS011;56083;48.774;8.942;2022-08-19T02:06:37;32.45;;;22.33;;
69030;SDS011;56083;48.774;8.942;2022-08-19T02:09:04;33.85;;;22.05;;
69030;SDS011;56083;48.774;8.942;2022-08-19T02:11:33;30.90;;;22.58;;
69030;SDS011;56083;48.774;8.942;2022-08-19T02:14:02;34.97;;;23.33;;
69030;SDS011;56083;48.774;8.942;2022-08-19T02:16:30;33.05;;;22.27;;
69030;SDS011;56083;48.774;8.942;2022-08-19T02:18:57;34.03;;;23.52;;
69030;SDS011;56083;48.774;8.942;2022-08-19T02:21:25;34.45;;;23.33;;
69030;SDS011;56083;48.774;8.942;2022-08-19T02:23:52;30.80;;;22.40;;
69030;SDS011;56083;48.774;8.942;2022-08-19T02:26:18;32.13;;;24.00;;
69030;SDS011;56083;48.774;8.942;2022-08-19T02:28:44;34.00;;;22.35;;
69030;SDS011;56083;48.774;8.942;2022-08-19T02:31:14;32.53;;;22.88;;
69030;SDS011;56083;48.774;8.942;2022-08-19T02:33:42;33.33;;;24.40;;
69030;SDS011;56083;48.774;8.942;2022-08-19T02:36:10;35.03;;;23.98;;
69030;SDS011;56083;48.774;8.942;2022-08-19T02:38:37;33.85;;;23.30;;
69030;SDS011;56083;48.774;8.942;2022-08-19T02:41:06;33.50;;;24.13;;
69030;SDS011;56083;48.774;8.942;2022-08-19T02:43:36;34.83;;;24.20;;
69030;SDS011;56083;48.774;8.942;2022-08-19T02:48:46;31.77;;;23.10;;
69030;SDS011;56083;48.774;8.942;2022-08-19T02:51:23;36.53;;;24.80;;
69030;SDS011;56083;48.774;8.942;2022-08-19T02:53:53;32.35;;;23.63;;
69030;SDS011;56083;48.774;8.942;2022-08-19T02:56:19;32.92;;;23.92;;
69030;SDS011;56083;48.774;8.942;2022-08-19T02:58:46;38.85;;;25.10;;
69030;SDS011;56083;48.774;8.942;2022-08-19T03:01:34;34.60;;;23.95;;
69030;SDS011;56083;48.774;8.942;2022-08-19T03:04:00;31.88;;;24.42;;
69030;SDS011;56083;48.774;8.942;2022-08-19T03:06:28;34.83;;;24.70;;
69030;SDS011;56083;48.774;8.942;2022-08-19T03:08:54;35.65;;;24.00;;
69030;SDS011;56083;48.774;8.942;2022-08-19T03:11:27;34.33;;;24.30;;
69030;SDS011;56083;48.774;8.942;2022-08-19T03:13:55;39.42;;;26.15;;
69030;SDS011;56083;48.774;8.942;2022-08-19T03:16:22;34.85;;;25.20;;
69030;SDS011;56083;48.774;8.942;2022-08-19T03:18:50;35.10;;;25.23;;
69030;SDS011;56083;48.774;8.942;2022-08-19T03:21:17;37.38;;;26.10;;
69030;SDS011;56083;48.774;8.942;2022-08-19T03:23:45;39.03;;;26.33;;
69030;SDS011;56083;48.774;8.942;2022-08-19T03:26:11;42.17;;;27.88;;
69030;SDS011;56083;48.774;8.942;2022-08-19T03:28:37;39.22;;;27.40;;
69030;SDS011;56083;48.774;8.942;2022-08-19T03:33:30;40.25;;;28.00;;
69030;SDS011;56083;48.774;8.942;2022-08-19T03:36:15;38.30;;;27.95;;
69030;SDS011;56083;48.774;8.942;2022-08-19T03:38:46;34.00;;;25.85;;
69030;SDS011;56083;48.774;8.942;2022-08-19T03:41:16;39.80;;;27.60;;
69030;SDS011;56083;48.774;8.942;2022-08-19T03:43:56;39.70;;;27.70;;
69030;SDS011;56083;48.774;8.942;2022-08-19T03:46:23;40.22;;;28.42;;
69030;SDS011;56083;48.774;8.942;2022-08-19T03:48:55;36.08;;;27.55;;
69030;SDS011;56083;48.774;8.942;2022-08-19T03:51:24;39.42;;;28.15;;
69030;SDS011;56083;48.774;8.942;2022-08-19T03:53:58;41.10;;;29.55;;
69030;SDS011;56083;48.774;8.942;2022-08-19T03:56:25;42.33;;;29.38;;
69030;SDS011;56083;48.774;8.942;2022-08-19T03:58:53;40.10;;;29.75;;
69030;SDS011;56083;48.774;8.942;2022-08-19T04:01:23;40.58;;;29.75;;
69030;SDS011;56083;48.774;8.942;2022-08-19T04:03:51;38.42;;;28.83;;
69030;SDS011;56083;48.774;8.942;2022-08-19T04:06:22;41.83;;;28.88;;
69030;SDS011;56083;48.774;8.942;2022-08-19T04:08:51;38.65;;;28.95;;
69030;SDS011;56083;48.774;8.942;2022-08-19T04:11:20;39.92;;;28.50;;
69030;SDS011;56083;48.774;8.942;2022-08-19T04:13:51;47.00;;;29.80;;
69030;SDS011;56083;48.774;8.942;2022-08-19T04:16:18;44.75;;;29.92;;
69030;SDS011;56083;48.774;8.942;2022-08-19T04:18:46;42.88;;;28.30;;
69030;SDS011;56083;48.774;8.942;2022-08-19T04:21:16;37.30;;;27.65;;
69030;SDS011;56083;48.774;8.942;2022-08-19T04:23:45;41.22;;;29.05;;
69030;SDS011;56083;48.774;8.942;2022-08-19T04:26:15;41.20;;;28.70;;
69030;SDS011;56083;48.774;8.942;2022-08-19T04:28:46;42.33;;;29.55;;
69030;SDS011;56083;48.774;8.942;2022-08-19T04:31:20;40.47;;;28.75;;
69030;SDS011;56083;48.774;8.942;2022-08-19T04:33:48;42.70;;;27.95;;
69030;SDS011;56083;48.774;8.942;2022-08-19T04:36:23;46.38;;;29.75;;
69030;SDS011;56083;48.774;8.942;2022-08-19T04:38:54;41.60;;;28.73;;
69030;SDS011;56083;48.774;8.942;2022-08-19T04:41:25;40.83;;;30.25;;
69030;SDS011;56083;48.774;8.942;2022-08-19T04:44:10;41.45;;;29.50;;
69030;SDS011;56083;48.774;8.942;2022-08-19T04:46:37;38.45;;;29.35;;
69030;SDS011;56083;48.774;8.942;2022-08-19T04:49:04;42.58;;;29.98;;
69030;SDS011;56083;48.774;8.942;2022-08-19T04:51:31;40.88;;;28.88;;
69030;SDS011;56083;48.774;8.942;2022-08-19T04:53:58;41.50;;;30.02;;
69030;SDS011;56083;48.774;8.942;2022-08-19T04:56:25;38.72;;;28.88;;
69030;SDS011;56083;48.774;8.942;2022-08-19T04:58:52;46.65;;;29.58;;
69030;SDS011;56083;48.774;8.942;2022-08-19T05:01:22;40.08;;;28.40;;
69030;SDS011;56083;48.774;8.942;2022-08-19T05:03:51;42.45;;;29.00;;
69030;SDS011;56083;48.774;8.942;2022-08-19T05:06:18;39.40;;;29.65;;
69030;SDS011;56083;48.774;8.942;2022-08-19T05:08:45;42.72;;;30.42;;
69030;SDS011;56083;48.774;8.942;2022-08-19T05:11:16;41.70;;;30.98;;
69030;SDS011;56083;48.774;8.942;2022-08-19T05:13:44;43.72;;;31.73;;
69030;SDS011;56083;48.774;8.942;2022-08-19T05:16:12;40.78;;;29.02;;
69030;SDS011;56083;48.774;8.942;2022-08-19T05:18:38;40.47;;;29.25;;
69030;SDS011;56083;48.774;8.942;2022-08-19T05:21:23;39.05;;;29.02;;
69030;SDS011;56083;48.774;8.942;2022-08-19T05:24:09;42.70;;;29.48;;
69030;SDS011;56083;48.774;8.942;2022-08-19T05:26:35;39.53;;;29.25;;
69030;SDS011;56083;48.774;8.942;2022-08-19T05:29:04;41.47;;;29.10;;
69030;SDS011;56083;48.774;8.942;2022-08-19T05:31:32;39.75;;;28.73;;
69030;SDS011;56083;48.774;8.942;2022-08-19T05:33:58;41.92;;;29.02;;
69030;SDS011;56083;48.774;8.942;2022-08-19T05:36:28;38.03;;;29.02;;
69030;SDS011;56083;48.774;8.942;2022-08-19T05:38:59;40.28;;;29.85;;
69030;SDS011;56083;48.774;8.942;2022-08-19T05:41:25;39.67;;;27.63;;
69030;SDS011;56083;48.774;8.942;2022-08-19T05:43:58;41.10;;;28.50;;
69030;SDS011;56083;48.774;8.942;2022-08-19T05:46:26;37.88;;;28.08;;
69030;SDS011;56083;48.774;8.942;2022-08-19T05:48:52;41.60;;;28.15;;
69030;SDS011;56083;48.774;8.942;2022-08-19T05:51:21;39.15;;;29.70;;
69030;SDS011;56083;48.774;8.942;2022-08-19T05:53:47;38.80;;;29.38;;
69030;SDS011;56083;48.774;8.942;2022-08-19T05:56:14;41.63;;;29.38;;
69030;SDS011;56083;48.774;8.942;2022-08-19T05:58:41;38.15;;;29.02;;
69030;SDS011;56083;48.774;8.942;2022-08-19T06:01:10;40.85;;;28.95;;
69030;SDS011;56083;48.774;8.942;2022-08-19T06:03:38;36.28;;;28.13;;
69030;SDS011;56083;48.774;8.942;2022-08-19T06:06:04;42.55;;;28.75;;
69030;SDS011;56083;48.774;8.942;2022-08-19T06:08:31;40.58;;;29.38;;
69030;SDS011;56083;48.774;8.942;2022-08-19T06:10:57;36.47;;;28.63;;
69030;SDS011;56083;48.774;8.942;2022-08-19T06:13:36;36.15;;;26.65;;
69030;SDS011;56083;48.774;8.942;2022-08-19T06:16:01;40.85;;;28.02;;
69030;SDS011;56083;48.774;8.942;2022-08-19T06:18:27;38.63;;;28.30;;
69030;SDS011;56083;48.774;8.942;2022-08-19T06:20:53;36.03;;;28.30;;
69030;SDS011;56083;48.774;8.942;2022-08-19T06:23:18;37.40;;;28.52;;
69030;SDS011;56083;48.774;8.942;2022-08-19T06:25:45;39.45;;;28.63;;
69030;SDS011;56083;48.774;8.942;2022-08-19T06:28:10;35.78;;;26.70;;
69030;SDS011;56083;48.774;8.942;2022-08-19T06:30:36;36.47;;;25.90;;
69030;SDS011;56083;48.774;8.942;2022-08-19T06:33:02;31.60;;;25.58;;
69030;SDS011;56083;48.774;8.942;2022-08-19T06:35:28;36.33;;;26.27;;
69030;SDS011;56083;48.774;8.942;2022-08-19T06:37:54;34.85;;;25.88;;
69030;SDS011;56083;48.774;8.942;2022-08-19T06:40:20;38.13;;;26.52;;
69030;SDS011;56083;48.774;8.942;2022-08-19T06:42:46;36.25;;;24.77;;
69030;SDS011;56083;48.774;8.942;2022-08-19T06:45:12;36.33;;;26.20;;
69030;SDS011;56083;48.774;8.942;2022-08-19T06:47:38;33.35;;;24.95;;
69030;SDS011;56083;48.774;8.942;2022-08-19T06:50:04;34.83;;;24.65;;
69030;SDS011;56083;48.774;8.942;2022-08-19T06:52:32;34.85;;;26.23;;
69030;SDS011;56083;48.774;8.942;2022-08-19T06:54:59;32.28;;;25.05;;
69030;SDS011;56083;48.774;8.942;2022-08-19T06:57:25;34.53;;;24.98;;
69030;SDS011;56083;48.774;8.942;2022-08-19T06:59:52;35.78;;;24.80;;
69030;SDS011;56083;48.774;8.942;2022-08-19T07:02:18;33.05;;;24.83;;
69030;SDS011;56083;48.774;8.942;2022-08-19T07:04:45;34.88;;;24.65;;
69030;SDS011;56083;48.774;8.942;2022-08-19T07:07:12;35.38;;;23.52;;
69030;SDS011;56083;48.774;8.942;2022-08-19T07:09:41;35.13;;;23.70;;
69030;SDS011;56083;48.774;8.942;2022-08-19T07:12:09;30.75;;;22.58;;
69030;SDS011;56083;48.774;8.942;2022-08-19T07:14:37;34.42;;;22.77;;
69030;SDS011;56083;48.774;8.942;2022-08-19T07:17:07;28.23;;;21.13;;
69030;SDS011;56083;48.774;8.942;2022-08-19T07:19:35;28.67;;;20.95;;
69030;SDS011;56083;48.774;8.942;2022-08-19T07:22:03;28.88;;;21.05;;
69030;SDS011;56083;48.774;8.942;2022-08-19T07:24:31;31.30;;;22.85;;
69030;SDS011;56083;48.774;8.942;2022-08-19T07:26:58;28.05;;;21.73;;
69030;SDS011;56083;48.774;8.942;2022-08-19T07:29:27;32.03;;;23.88;;
69030;SDS011;56083;48.774;8.942;2022-08-19T07:31:55;31.45;;;23.20;;
69030;SDS011;56083;48.774;8.942;2022-08-19T07:34:21;29.48;;;21.95;;
69030;SDS011;56083;48.774;8.942;2022-08-19T07:36:48;29.80;;;22.15;;
69030;SDS011;56083;48.774;8.942;2022-08-19T07:39:17;35.22;;;22.23;;
69030;SDS011;56083;48.774;8.942;2022-08-19T07:41:45;30.40;;;21.63;;
69030;SDS011;56083;48.774;8.942;2022-08-19T07:44:12;29.33;;;21.45;;
69030;SDS011;56083;48.774;8.942;2022-08-19T07:46:39;34.30;;;22.92;;
69030;SDS011;56083;48.774;8.942;2022-08-19T07:49:09;25.73;;;20.33;;
69030;SDS011;56083;48.774;8.942;2022-08-19T07:51:45;30.30;;;21.45;;
69030;SDS011;56083;48.774;8.942;2022-08-19T07:54:13;29.23;;;21.98;;
69030;SDS011;56083;48.774;8.942;2022-08-19T07:56:39;28.17;;;20.55;;
69030;SDS011;56083;48.774;8.942;2022-08-19T07:59:04;30.52;;;20.80;;
69030;SDS011;56083;48.774;8.942;2022-08-19T08:01:30;26.55;;;19.55;;
69030;SDS011;56083;48.774;8.942;2022-08-19T08:03:56;26.48;;;19.52;;
69030;SDS011;56083;48.774;8.942;2022-08-19T08:06:41;29.88;;;20.98;;
69030;SDS011;56083;48.774;8.942;2022-08-19T08:09:29;24.83;;;19.95;;
69030;SDS011;56083;48.774;8.942;2022-08-19T08:12:34;25.85;;;19.15;;
69030;SDS011;56083;48.774;8.942;2022-08-19T08:14:57;28.50;;;19.48;;
69030;SDS011;56083;48.774;8.942;2022-08-19T08:17:27;23.52;;;19.95;;
69030;SDS011;56083;48.774;8.942;2022-08-19T08:19:54;28.17;;;20.65;;
69030;SDS011;56083;48.774;8.942;2022-08-19T08:22:21;29.15;;;19.45;;
69030;SDS011;56083;48.774;8.942;2022-08-19T08:25:07;24.67;;;18.75;;
69030;SDS011;56083;48.774;8.942;2022-08-19T08:27:36;21.25;;;17.13;;
69030;SDS011;56083;48.774;8.942;2022-08-19T08:30:05;23.33;;;18.52;;
69030;SDS011;56083;48.774;8.942;2022-08-19T08:32:34;24.85;;;18.50;;
69030;SDS011;56083;48.774;8.942;2022-08-19T08:35:02;23.17;;;17.27;;
69030;SDS011;56083;48.774;8.942;2022-08-19T08:37:32;28.17;;;18.38;;
69030;SDS011;56083;48.774;8.942;2022-08-19T08:39:58;24.58;;;17.45;;
69030;SDS011;56083;48.774;8.942;2022-08-19T08:42:36;21.48;;;17.05;;
69030;SDS011;56083;48.774;8.942;2022-08-19T08:45:13;25.52;;;16.67;;
69030;SDS011;56083;48.774;8.942;2022-08-19T08:47:43;23.77;;;17.00;;
69030;SDS011;56083;48.774;8.942;2022-08-19T08:50:17;22.38;;;16.20;;
69030;SDS011;56083;48.774;8.942;2022-08-19T08:52:48;23.50;;;17.70;;
69030;SDS011;56083;48.774;8.942;2022-08-19T08:55:20;28.08;;;17.05;;
69030;SDS011;56083;48.774;8.942;2022-08-19T08:57:53;24.38;;;15.80;;
69030;SDS011;56083;48.774;8.942;2022-08-19T09:00:28;20.95;;;16.15;;
69030;SDS011;56083;48.774;8.942;2022-08-19T09:02:57;24.83;;;16.83;;
69030;SDS011;56083;48.774;8.942;2022-08-19T09:05:30;23.35;;;17.83;;
69030;SDS011;56083;48.774;8.942;2022-08-19T09:08:06;22.23;;;17.33;;
69030;SDS011;56083;48.774;8.942;2022-08-19T09:16:19;27.38;;;16.67;;
69030;SDS011;56083;48.774;8.942;2022-08-19T09:18:53;27.67;;;17.15;;
69030;SDS011;56083;48.774;8.942;2022-08-19T09:23:50;23.27;;;16.80;;
69030;SDS011;56083;48.774;8.942;2022-08-19T09:26:17;24.73;;;16.90;;
69030;SDS011;56083;48.774;8.942;2022-08-19T09:28:45;23.98;;;17.60;;
69030;SDS011;56083;48.774;8.942;2022-08-19T09:31:20;26.98;;;17.38;;
69030;SDS011;56083;48.774;8.942;2022-08-19T09:33:48;24.52;;;16.20;;
69030;SDS011;56083;48.774;8.942;2022-08-19T09:36:15;22.55;;;16.33;;
69030;SDS011;56083;48.774;8.942;2022-08-19T09:38:43;24.23;;;16.05;;
69030;SDS011;56083;48.774;8.942;2022-08-19T09:41:11;19.98;;;15.65;;
69030;SDS011;56083;48.774;8.942;2022-08-19T09:43:40;21.52;;;15.65;;
69030;SDS011;56083;48.774;8.942;2022-08-19T09:46:07;23.48;;;15.80;;
69030;SDS011;56083;48.774;8.942;2022-08-19T09:48:38;22.92;;;16.25;;
69030;SDS011;56083;48.774;8.942;2022-08-19T09:53:33;23.48;;;16.17;;
69030;SDS011;56083;48.774;8.942;2022-08-19T09:55:59;29.58;;;16.08;;
69030;SDS011;56083;48.774;8.942;2022-08-19T09:58:25;28.25;;;16.05;;
69030;SDS011;56083;48.774;8.942;2022-08-19T10:00:56;27.23;;;15.40;;
69030;SDS011;56083;48.774;8.942;2022-08-19T10:03:23;27.40;;;15.15;;
69030;SDS011;56083;48.774;8.942;2022-08-19T10:05:50;20.95;;;14.55;;
69030;SDS011;56083;48.774;8.942;2022-08-19T10:08:20;21.00;;;13.07;;
69030;SDS011;56083;48.774;8.942;2022-08-19T10:10:48;22.02;;;14.05;;
69030;SDS011;56083;48.774;8.942;2022-08-19T10:13:15;23.13;;;13.18;;
69030;SDS011;56083;48.774;8.942;2022-08-19T10:15:43;21.65;;;13.45;;
69030;SDS011;56083;48.774;8.942;2022-08-19T10:18:09;19.45;;;13.18;;
69030;SDS011;56083;48.774;8.942;2022-08-19T10:20:35;20.17;;;12.57;;
69030;SDS011;56083;48.774;8.942;2022-08-19T10:23:03;19.30;;;10.82;;
69030;SDS011;56083;48.774;8.942;2022-08-19T10:25:29;17.27;;;10.68;;
69030;SDS011;56083;48.774;8.942;2022-08-19T10:27:56;11.98;;;9.35;;
69030;SDS011;56083;48.774;8.942;2022-08-19T10:30:22;19.65;;;10.57;;
69030;SDS011;56083;48.774;8.942;2022-08-19T10:32:47;14.60;;;9.60;;
69030;SDS011;56083;48.774;8.942;2022-08-19T10:35:13;14.43;;;9.63;;
69030;SDS011;56083;48.774;8.942;2022-08-19T10:37:40;20.52;;;10.80;;
69030;SDS011;56083;48.774;8.942;2022-08-19T10:40:07;14.98;;;10.85;;
69030;SDS011;56083;48.774;8.942;2022-08-19T10:42:35;14.45;;;9.88;;
69030;SDS011;56083;48.774;8.942;2022-08-19T10:45:01;18.60;;;11.18;;
69030;SDS011;56083;48.774;8.942;2022-08-19T10:47:28;15.52;;;11.05;;
69030;SDS011;56083;48.774;8.942;2022-08-19T10:49:54;17.27;;;11.82;;
69030;SDS011;56083;48.774;8.942;2022-08-19T10:52:39;18.27;;;11.25;;
69030;SDS011;56083;48.774;8.942;2022-08-19T10:55:07;18.48;;;11.80;;
69030;SDS011;56083;48.774;8.942;2022-08-19T10:57:51;18.50;;;11.55;;
69030;SDS011;56083;48.774;8.942;2022-08-19T11:00:18;18.08;;;9.73;;
69030;SDS011;56083;48.774;8.942;2022-08-19T11:02:48;16.45;;;9.63;;
69030;SDS011;56083;48.774;8.942;2022-08-19T11:05:14;13.02;;;8.50;;
69030;SDS011;56083;48.774;8.942;2022-08-19T11:07:40;12.65;;;8.52;;
69030;SDS011;56083;48.774;8.942;2022-08-19T11:10:07;13.90;;;8.40;;
69030;SDS011;56083;48.774;8.942;2022-08-19T11:12:38;14.15;;;7.45;;
69030;SDS011;56083;48.774;8.942;2022-08-19T11:15:05;12.50;;;8.13;;
69030;SDS011;56083;48.774;8.942;2022-08-19T11:17:35;10.68;;;7.30;;
69030;SDS011;56083;48.774;8.942;2022-08-19T11:20:05;10.65;;;7.25;;
69030;SDS011;56083;48.774;8.942;2022-08-19T11:22:31;10.30;;;7.10;;
69030;SDS011;56083;48.774;8.942;2022-08-19T11:24:57;12.77;;;6.70;;
69030;SDS011;56083;48.774;8.942;2022-08-19T11:27:23;10.88;;;6.40;;
69030;SDS011;56083;48.774;8.942;2022-08-19T11:29:48;18.00;;;7.30;;
69030;SDS011;56083;48.774;8.942;2022-08-19T11:32:14;11.90;;;6.47;;
69030;SDS011;56083;48.774;8.942;2022-08-19T11:34:41;15.68;;;6.53;;
69030;SDS011;56083;48.774;8.942;2022-08-19T11:37:06;9.18;;;6.68;;
69030;SDS011;56083;48.774;8.942;2022-08-19T11:39:33;11.38;;;6.63;;
69030;SDS011;56083;48.774;8.942;2022-08-19T11:42:02;11.50;;;6.55;;
69030;SDS011;56083;48.774;8.942;2022-08-19T11:44:49;9.07;;;7.03;;
69030;SDS011;56083;48.774;8.942;2022-08-19T11:47:15;8.88;;;6.28;;
69030;SDS011;56083;48.774;8.942;2022-08-19T11:49:41;6.97;;;5.28;;
69030;SDS011;56083;48.774;8.942;2022-08-19T11:52:07;11.63;;;6.20;;
69030;SDS011;56083;48.774;8.942;2022-08-19T11:54:33;7.85;;;5.45;;
69030;SDS011;56083;48.774;8.942;2022-08-19T11:56:58;7.63;;;5.72;;
69030;SDS011;56083;48.774;8.942;2022-08-19T11:59:26;6.82;;;4.93;;
69030;SDS011;56083;48.774;8.942;2022-08-19T12:01:52;8.05;;;5.40;;
69030;SDS011;56083;48.774;8.942;2022-08-19T12:04:17;11.43;;;5.57;;
69030;SDS011;56083;48.774;8.942;2022-08-19T12:06:43;13.63;;;5.78;;
69030;SDS011;56083;48.774;8.942;2022-08-19T12:09:09;12.85;;;5.65;;
69030;SDS011;56083;48.774;8.942;2022-08-19T12:11:36;12.20;;;5.70;;
69030;SDS011;56083;48.774;8.942;2022-08-19T12:14:03;7.90;;;4.97;;
69030;SDS011;56083;48.774;8.942;2022-08-19T12:16:29;10.98;;;4.82;;
69030;SDS011;56083;48.774;8.942;2022-08-19T12:18:57;6.80;;;4.93;;
69030;SDS011;56083;48.774;8.942;2022-08-19T12:21:28;5.68;;;4.50;;
69030;SDS011;56083;48.774;8.942;2022-08-19T12:23:54;7.45;;;4.57;;
69030;SDS011;56083;48.774;8.942;2022-08-19T12:26:21;10.30;;;5.65;;
69030;SDS011;56083;48.774;8.942;2022-08-19T12:28:48;10.02;;;5.05;;
69030;SDS011;56083;48.774;8.942;2022-08-19T12:31:15;7.32;;;4.47;;
69030;SDS011;56083;48.774;8.942;2022-08-19T12:33:41;10.38;;;4.90;;
69030;SDS011;56083;48.774;8.942;2022-08-19T12:36:08;9.40;;;4.72;;
69030;SDS011;56083;48.774;8.942;2022-08-19T12:38:37;9.32;;;5.05;;
69030;SDS011;56083;48.774;8.942;2022-08-19T12:41:04;8.48;;;5.00;;
69030;SDS011;56083;48.774;8.942;2022-08-19T12:43:35;7.00;;;4.20;;
69030;SDS011;56083;48.774;8.942;2022-08-19T12:46:01;9.65;;;4.60;;
69030;SDS011;56083;48.774;8.942;2022-08-19T12:48:29;9.60;;;4.97;;
69030;SDS011;56083;48.774;8.942;2022-08-19T12:50:55;6.32;;;4.05;;
69030;SDS011;56083;48.774;8.942;2022-08-19T12:53:21;8.88;;;4.53;;
69030;SDS011;56083;48.774;8.942;2022-08-19T12:55:47;9.80;;;5.22;;
69030;SDS011;56083;48.774;8.942;2022-08-19T12:58:13;11.23;;;4.63;;
69030;SDS011;56083;48.774;8.942;2022-08-19T13:00:39;6.88;;;4.38;;
69030;SDS011;56083;48.774;8.942;2022-08-19T13:03:05;6.65;;;4.45;;
69030;SDS011;56083;48.774;8.942;2022-08-19T13:05:32;7.18;;;4.35;;
69030;SDS011;56083;48.774;8.942;2022-08-19T13:08:01;9.38;;;4.20;;
69030;SDS011;56083;48.774;8.942;2022-08-19T13:10:31;6.03;;;3.97;;
69030;SDS011;56083;48.774;8.942;2022-08-19T13:13:03;5.22;;;4.38;;
69030;SDS011;56083;48.774;8.942;2022-08-19T13:15:34;5.85;;;3.80;;
69030;SDS011;56083;48.774;8.942;2022-08-19T13:18:02;7.60;;;4.40;;
69030;SDS011;56083;48.774;8.942;2022-08-19T13:20:28;5.85;;;4.15;;
69030;SDS011;56083;48.774;8.942;2022-08-19T13:22:54;5.20;;;4.18;;
69030;SDS011;56083;48.774;8.942;2022-08-19T13:25:22;6.32;;;4.40;;
69030;SDS011;56083;48.774;8.942;2022-08-19T13:27:48;7.53;;;4.40;;
69030;SDS011;56083;48.774;8.942;2022-08-19T13:30:15;8.93;;;4.47;;
69030;SDS011;56083;48.774;8.942;2022-08-19T13:33:01;12.25;;;4.50;;
69030;SDS011;56083;48.774;8.942;2022-08-19T13:35:40;12.27;;;5.20;;
69030;SDS011;56083;48.774;8.942;2022-08-19T13:38:08;10.02;;;4.63;;
69030;SDS011;56083;48.774;8.942;2022-08-19T13:40:34;7.45;;;5.30;;
69030;SDS011;56083;48.774;8.942;2022-08-19T13:43:01;6.82;;;4.78;;
69030;SDS011;56083;48.774;8.942;2022-08-19T13:45:28;12.18;;;5.10;;
69030;SDS011;56083;48.774;8.942;2022-08-19T13:47:58;10.40;;;5.40;;
69030;SDS011;56083;48.774;8.942;2022-08-19T13:50:26;12.43;;;6.10;;
69030;SDS011;56083;48.774;8.942;2022-08-19T13:52:56;8.27;;;6.18;;
69030;SDS011;56083;48.774;8.942;2022-08-19T13:55:22;7.90;;;5.65;;
69030;SDS011;56083;48.774;8.942;2022-08-19T13:57:59;7.38;;;5.65;;
69030;SDS011;56083;48.774;8.942;2022-08-19T14:00:30;9.10;;;5.45;;
69030;SDS011;56083;48.774;8.942;2022-08-19T14:02:58;6.20;;;5.25;;
69030;SDS011;56083;48.774;8.942;2022-08-19T14:05:24;7.00;;;5.60;;
69030;SDS011;56083;48.774;8.942;2022-08-19T14:07:51;8.70;;;5.93;;
69030;SDS011;56083;48.774;8.942;2022-08-19T14:10:17;8.18;;;5.75;;
69030;SDS011;56083;48.774;8.942;2022-08-19T14:12:44;8.52;;;5.82;;
69030;SDS011;56083;48.774;8.942;2022-08-19T14:15:11;10.60;;;5.93;;
69030;SDS011;56083;48.774;8.942;2022-08-19T14:17:38;13.63;;;5.30;;
69030;SDS011;56083;48.774;8.942;2022-08-19T14:20:06;6.18;;;4.68;;
69030;SDS011;56083;48.774;8.942;2022-08-19T14:22:38;11.98;;;5.32;;
69030;SDS011;56083;48.774;8.942;2022-08-19T14:25:06;9.55;;;5.00;;
69030;SDS011;56083;48.774;8.942;2022-08-19T14:27:34;11.85;;;5.78;;
69030;SDS011;56083;48.774;8.942;2022-08-19T14:30:05;9.13;;;6.03;;
69030;SDS011;56083;48.774;8.942;2022-08-19T14:32:33;6.60;;;5.22;;
69030;SDS011;56083;48.774;8.942;2022-08-19T14:34:59;8.38;;;5.50;;
69030;SDS011;56083;48.774;8.942;2022-08-19T14:37:25;10.48;;;5.78;;
69030;SDS011;56083;48.774;8.942;2022-08-19T14:39:50;6.88;;;5.40;;
69030;SDS011;56083;48.774;8.942;2022-08-19T14:42:16;10.43;;;5.55;;
69030;SDS011;56083;48.774;8.942;2022-08-19T14:44:42;11.02;;;5.50;;
69030;SDS011;56083;48.774;8.942;2022-08-19T14:47:08;12.60;;;5.88;;
69030;SDS011;56083;48.774;8.942;2022-08-19T14:49:34;8.13;;;5.65;;
69030;SDS011;56083;48.774;8.942;2022-08-19T14:52:01;9.73;;;5.88;;
69030;SDS011;56083;48.774;8.942;2022-08-19T14:54:27;8.57;;;5.38;;